Terminal Aerodrome Forecast
Issued by NWS Grand Forks, ND

Home | Current Version | Previous Version | Graphics & Text | Print | Product List | Glossary On
Versions: 1 2 3 4 5 6 7 8 9 10 11 12
689
FTUS43 KFGF 140520
TAFGFK
TAF
KGFK 140520Z 1406/1506 18014KT P6SM FEW250
     FM140900 24007KT P6SM SKC
     FM142200 21006KT P6SM SKC=

USA.gov is the U.S. government's official web portal to all federal, state and local government web resources and services.